AirNav   Pilot Hours Calculator
 
 896 users online  

4M7 Russellville-Logan County Airport
Russellville, Kentucky, USA

GOING TO RUSSELLVILLE?


FAA INFORMATION EFFECTIVE 25 FEBRUARY 2021

Location

FAA Identifier: 4M7
Lat/Long: 36-47-58.6000N 086-48-39.3000W
36-47.976667N 086-48.655000W
36.7996111,-86.8109167
(estimated)
Elevation: 691.7 ft. / 210.8 m (surveyed)
Variation: 04W (2020)
From city: 4 miles SE of RUSSELLVILLE, KY
Time zone: UTC -6 (UTC -5 during Daylight Saving Time)
Zip code: 42276

Airport Operations

Airport use: Open to the public
Activation date: 02/1966
Control tower: no
ARTCC: MEMPHIS CENTER
FSS: LOUISVILLE FLIGHT SERVICE STATION
NOTAMs facility: LOU (NOTAM-D service available)
Attendance: 0900-1800
Wind indicator: lighted
Segmented circle: yes
Lights: ACTVT REIL RYS 07 & 25; PAPI RYS 07 & 25; MIRL RY 07/25 - CTAF.
Beacon: white-green (lighted land airport)
Operates sunset to sunrise.

Airport Communications

CTAF/UNICOM: 122.7
WX AWOS-3 at M91 (17 nm S): 120.675 (615-384-8206)
  • APCH/DEP SVC PRVDD BY MEMPHIS ARTCC ON FREQS 133.85/317.6 (NASHVILLE RCAG).

Nearby radio navigation aids

VOR radial/distance  VOR name  Freq  Var
CKVr071/30.8CLARKSVILLE VOR/DME110.6001W

Airport Services

Fuel available: 100LL JET-A+
Parking: tiedowns
Airframe service: NONE
Powerplant service: NONE
Bottled oxygen: NONE
Bulk oxygen: NONE

Runway Information

Runway 7/25

Dimensions: 4500 x 75 ft. / 1372 x 23 m
Surface: asphalt, in good condition
Weight bearing capacity: 
Single wheel: 12.5
Runway edge lights: medium intensity
RUNWAY 7  RUNWAY 25
Latitude: 36-47.810572N36-48.141762N
Longitude: 086-49.067543W086-48.242477W
Elevation: 691.7 ft.655.1 ft.
Traffic pattern: leftleft
Runway heading: 067 magnetic, 063 true247 magnetic, 243 true
Markings: nonprecision, in good conditionnonprecision, in good condition
Visual slope indicator: 2-light PAPI on left (3.00 degrees glide path)2-light PAPI on left (3.00 degrees glide path)
Runway end identifier lights: yesyes
Touchdown point: yes, no lightsyes, no lights
Obstructions: none8 ft. trees, 270 ft. from runway, 249 ft. right of centerline, 8:1 slope to clear

Airport Ownership and Management from official FAA records

Ownership: Publicly-owned
Owner: CITY COUNTY ARPT BOARD
385 AIRPORT RD.
RUSSELLVILLE, KY 42276
Phone (270) 847-7622
AIRPORT BOARD CHAIRMAN STEVE DILLIHA
Manager: CASSIE SOBEY
385 AIRPORT RD.
RUSSELLVILLE, KY 42276
Phone 270-726-3214

Airport Operational Statistics

Aircraft based on the field: 18
Single engine airplanes: 18
    
Aircraft operations: avg 135/week *
41% local general aviation
28% military
21% transient general aviation
9% air taxi
* for 12-month period ending 05 November 2019

Additional Remarks

DEER ON & INVOF ARPT.
WILDLIFE NEAR ARPT.
FOR CD CTC MEMPHIS ARTCC AT 901-368-8453.

Instrument Procedures

NOTE: All procedures below are presented as PDF files. If you need a reader for these files, you should download the free Adobe Reader.

NOT FOR NAVIGATION. Please procure official charts for flight.
FAA instrument procedures published for use from 25 February 2021 at 0901Z to 25 March 2021 at 0900Z.

 
IAPs - Instrument Approach Procedures
RNAV (GPS) RWY 07   download (191KB)
RNAV (GPS) RWY 25   download (221KB)
NOTE: Special Take-Off Minimums/Departure Procedures apply   download (235KB)

Other nearby airports with instrument procedures:

M91 - Springfield Robertson County Airport (17 nm S)
1M5 - Portland Municipal Airport (20 nm SE)
KBWG - Bowling Green-Warren County Regional Airport (21 nm NE)
M21 - Muhlenberg County Airport (30 nm NW)
KCKV - Outlaw Field Airport (31 nm W)
 
Loc | Ops | Rwys | IFR | FBO | Links
Com | Nav | Svcs | Stats | Notes
Area around 4M7 (Russellville-Logan County Airport)
 
Road maps at: MapQuest Bing Google
 
Aerial photo
WARNING: Photo may not be current or correct
Aerial photo of 4M7 (Russellville-Logan County Airport)
Taken in May 2020
looking north.

Do you have a better or more recent aerial photo of Russellville-Logan County Airport that you would like to share? If so, please send us your photo.

 
Sectional chart

 
Airport distance calculator
Flying to Russellville-Logan County Airport? Find the distance to fly.

From to 4M7

Sunrise and sunset
Times for 02-Mar-2021
 Local
(UTC-6)
 Zulu
(UTC)
Morning civil twilight05:5211:52
Sunrise06:1812:18
Sunset17:4123:41
Evening civil twilight18:0700:07

Current date and time
Zulu (UTC)  03-Mar-2021 03:23:34
Local (UTC-6)  02-Mar-2021 21:23:34
 
METAR
KM91 
17nm S 
030255Z AUTO 00000KT 10SM FEW030 FEW039 03/M02 A3013 RMK A01
K1M5 
20nm SE 
030255Z AUTO 00000KT 10SM CLR 03/M02 A3012 RMK A01
KBWG 
21nm NE 
030253Z AUTO 00000KT 10SM CLR 03/M03 A3015 RMK AO2 SLP212 T00281033 50004
KM21 
30nm NW 
030255Z AUTO 00000KT 10SM CLR 01/M04 A3016 RMK AO2 T00051042
KCKV 
31nm W 
030252Z AUTO 33003KT 10SM CLR 03/M02 A3015 RMK AO2 SLP214 T00281022 51001
KXNX 
32nm SE 
030255Z AUTO 36006KT 10SM CLR 05/M03 A3016 RMK A01
TAF
KBWG 
21nm NE 
021720Z 0218/0318 VRB04KT P6SM SCT250= TAF KVTN 021720Z 0218/0318 30014G21KT P6SM SKC FM022100 32012KT P6SM SKC FM030000 VRB05KT P6SM SKC
NOTAMs
Click for the latest NOTAMs
NOTAMs are issued by the DoD/FAA and will open in a separate window not controlled by AirNav.

 

 
 

FBO, Fuel Providers, and Aircraft Ground Support

  
 Business Name 
 
 Contact 
 
 Services / Description 
 
Fuel Prices
 
Comments
  
Russellville-Logan County Airport 270-726-3214
270-847-7379
[web site]
[email]
Airport management, Aviation fuel, Aircraft parking (ramp or tiedown), Hangars, Hangar leasing / sales, Passenger terminal and lounge, ...

More info about Russellville-Logan County Airport
Shell
100LL Jet A
AS $3.96 $3.29 
 Updated 16-Feb-2021
 
   3 read write
AS=Assisted/Self Service
Update Fuel Prices
 

Would you like to see your business listed on this page?

 If your business provides an interesting product or service to pilots, flight crews, aircraft, or users of the Russellville-Logan County Airport, you should consider listing it here.  To start the listing process, click on the button below
 
Add a business
 

Other Pages about Russellville-Logan County Airport

Update a link
 
Copyright © AirNav, LLC. All rights reserved. Privacy Policy  Contact